Time;durP1;ratioP1;P1;durP2;ratioP2;P2;SDS_P1;SDS_P2;PMS_P1;PMS_P2;Temp;Humidity;BMP_temperature;BMP_pressure;BME280_temperature;BME280_humidity;BME280_pressure;Samples;Min_cycle;Max_cycle;Signal;HPM_P1;HPM_P2
2023/10/01 00:00:14;;;;;;;0.40;0.40;;;;;;;10.85;94.76;101254.00;4992705;28;20548;-50
2023/10/01 00:02:41;;;;;;;0.40;0.20;;;;;;;10.97;95.93;101252.06;4993052;28;20891;-50
2023/10/01 00:05:09;;;;;;;0.40;0.20;;;;;;;10.90;97.14;101254.81;4992806;28;20449;-50
2023/10/01 00:07:37;;;;;;;0.40;0.20;;;;;;;10.86;96.55;101256.66;4988574;28;20544;-51
2023/10/01 00:10:11;;;;;;;0.50;0.30;;;;;;;10.75;96.67;101255.03;4975955;28;20425;-50
2023/10/01 00:12:44;;;;;;;0.40;0.20;;;;;;;10.82;97.16;101257.56;4992783;28;20560;-51
2023/10/01 00:15:12;;;;;;;0.40;0.20;;;;;;;10.78;96.74;101261.19;4986335;28;20456;-48
2023/10/01 00:17:40;;;;;;;0.40;0.20;;;;;;;10.81;96.06;101265.56;4992782;28;20454;-49
2023/10/01 00:20:20;;;;;;;0.40;0.20;;;;;;;10.76;96.48;101268.31;4992765;28;20445;-49
2023/10/01 00:22:50;;;;;;;0.40;0.20;;;;;;;10.77;96.63;101262.09;4992654;28;20500;-50
2023/10/01 00:25:17;;;;;;;0.60;0.50;;;;;;;10.72;96.24;101271.03;4992530;28;20457;-50
2023/10/01 00:27:45;;;;;;;0.40;0.20;;;;;;;10.80;95.24;101264.69;4992699;28;20473;-50
2023/10/01 00:30:12;;;;;;;0.40;0.20;;;;;;;10.79;95.02;101260.28;4984404;28;20517;-49
2023/10/01 00:32:39;;;;;;;0.40;0.20;;;;;;;10.79;96.08;101259.41;4988287;28;20532;-49
2023/10/01 00:35:07;;;;;;;0.40;0.30;;;;;;;10.71;95.70;101258.66;4992758;28;20543;-49
2023/10/01 00:37:34;;;;;;;0.40;0.20;;;;;;;10.66;96.04;101253.38;4989754;28;20572;-49
2023/10/01 00:40:03;;;;;;;0.40;0.20;;;;;;;10.65;96.69;101249.84;4992442;28;20449;-51
2023/10/01 00:42:32;;;;;;;0.40;0.20;;;;;;;10.68;96.94;101256.88;4992415;28;20859;-48
2023/10/01 00:44:59;;;;;;;0.40;0.20;;;;;;;10.59;95.67;101257.03;4983218;28;20450;-49
2023/10/01 00:47:27;;;;;;;0.40;0.20;;;;;;;10.69;96.68;101258.66;4990118;28;20469;-48
2023/10/01 00:49:57;;;;;;;0.40;0.20;;;;;;;10.70;96.32;101252.44;4992583;28;20464;-49
2023/10/01 00:52:23;;;;;;;0.40;0.20;;;;;;;10.56;96.45;101252.63;4992191;28;20894;-49
2023/10/01 00:54:54;;;;;;;0.40;0.20;;;;;;;10.60;97.27;101256.13;4992446;28;20454;-49
2023/10/01 00:57:21;;;;;;;0.40;0.20;;;;;;;10.55;96.35;101248.22;4992450;28;20473;-49
2023/10/01 00:59:50;;;;;;;0.40;0.20;;;;;;;10.56;96.74;101249.97;4994808;28;20463;-49
2023/10/01 01:02:17;;;;;;;0.40;0.20;;;;;;;10.56;97.08;101251.75;4996188;28;20455;-49
2023/10/01 01:05:00;;;;;;;0.40;0.20;;;;;;;10.64;96.59;101253.41;4996087;28;20454;-49
2023/10/01 01:07:28;;;;;;;0.40;0.20;;;;;;;10.44;96.57;101247.47;4993699;28;20510;-52
2023/10/01 01:09:55;;;;;;;0.40;0.20;;;;;;;10.30;97.01;101244.09;4979006;28;20457;-53
2023/10/01 01:12:21;;;;;;;0.40;0.20;;;;;;;10.38;97.37;101237.78;4996040;28;20521;-52
2023/10/01 01:14:48;;;;;;;0.40;0.20;;;;;;;10.38;98.04;101231.59;4990160;28;20576;-52
2023/10/01 01:17:14;;;;;;;0.30;0.20;;;;;;;10.43;98.25;101232.44;4995798;28;20897;-53
2023/10/01 01:19:51;;;;;;;0.40;0.20;;;;;;;10.50;97.73;101235.88;4995928;28;20453;-51
2023/10/01 01:22:28;;;;;;;0.40;0.20;;;;;;;10.49;97.15;101236.78;4996074;28;20508;-51
2023/10/01 01:24:57;;;;;;;0.40;0.20;;;;;;;10.48;97.55;101227.03;4995927;28;20445;-52
2023/10/01 01:27:24;;;;;;;0.37;0.20;;;;;;;10.45;97.98;101227.97;4996106;28;20551;-52
2023/10/01 01:29:50;;;;;;;0.40;0.20;;;;;;;10.38;97.74;101229.81;4972550;28;20783;-51
2023/10/01 01:32:17;;;;;;;0.40;0.20;;;;;;;10.38;97.61;101224.50;4988723;28;20559;-52
2023/10/01 01:34:45;;;;;;;0.40;0.20;;;;;;;10.29;98.25;101216.66;4995571;28;20454;-51
2023/10/01 01:37:36;;;;;;;0.40;0.30;;;;;;;10.39;97.86;101230.69;4992921;28;20470;-51
2023/10/01 01:40:23;;;;;;;0.40;0.20;;;;;;;10.31;96.91;101225.47;4974993;28;20531;-51
2023/10/01 01:42:56;;;;;;;0.30;0.20;;;;;;;10.20;97.36;101214.06;4995668;28;20445;-48
2023/10/01 01:45:28;;;;;;;0.40;0.20;;;;;;;10.23;98.27;101213.19;4995247;28;20449;-48
2023/10/01 01:47:54;;;;;;;0.40;0.20;;;;;;;10.26;97.27;101221.97;4995251;28;20541;-51
2023/10/01 01:50:26;;;;;;;0.30;0.20;;;;;;;10.22;97.41;101220.28;4995154;28;20456;-51
2023/10/01 01:52:57;;;;;;;0.30;0.20;;;;;;;10.17;97.90;101218.53;4995264;28;20496;-52
2023/10/01 01:55:28;;;;;;;0.30;0.20;;;;;;;10.01;97.97;101220.50;4978193;28;20450;-52
2023/10/01 01:58:08;;;;;;;0.40;0.20;;;;;;;9.97;97.79;101218.75;4995339;28;20465;-51
2023/10/01 02:00:47;;;;;;;0.40;0.20;;;;;;;10.05;97.67;101214.25;4995264;28;20875;-52
2023/10/01 02:03:18;;;;;;;0.40;0.20;;;;;;;10.18;97.13;101212.34;4995177;28;20472;-53
2023/10/01 02:05:47;;;;;;;0.40;0.20;;;;;;;10.16;97.42;101216.78;4971321;28;20470;-50
2023/10/01 02:10:59;;;;;;;0.40;0.20;;;;;;;9.99;97.63;101215.19;4985205;28;20450;-51
2023/10/01 02:13:26;;;;;;;0.40;0.20;;;;;;;10.05;98.13;101212.47;4994849;28;20495;-52
2023/10/01 02:15:54;;;;;;;0.40;0.20;;;;;;;10.06;97.33;101219.53;4988767;28;20528;-50
2023/10/01 02:18:21;;;;;;;0.30;0.20;;;;;;;9.88;97.88;101210.91;4994844;28;20480;-49
2023/10/01 02:20:51;;;;;;;0.40;0.20;;;;;;;9.96;97.86;101209.03;4994823;28;20453;-50
2023/10/01 02:23:25;;;;;;;0.30;0.20;;;;;;;9.85;97.74;101208.25;4995135;28;20445;-50
2023/10/01 02:25:57;;;;;;;0.40;0.20;;;;;;;9.80;97.96;101201.25;4994713;28;20477;-49
2023/10/01 02:28:26;;;;;;;0.40;0.20;;;;;;;9.91;97.66;101202.91;4994630;28;21009;-49
2023/10/01 02:31:00;;;;;;;0.30;0.20;;;;;;;9.79;97.04;101194.16;4981660;28;20451;-50
2023/10/01 02:33:55;;;;;;;0.40;0.20;;;;;;;9.78;97.42;101194.19;4994667;28;20495;-52
2023/10/01 02:36:15;;;;;;;0.30;0.20;;;;;;;9.71;98.03;101187.16;4994377;28;20544;-50
2023/10/01 02:38:45;;;;;;;0.30;0.20;;;;;;;9.61;99.33;101183.75;4991727;28;20933;-49
2023/10/01 02:41:15;;;;;;;0.30;0.20;;;;;;;9.81;98.24;101178.22;4994418;28;20456;-49
2023/10/01 02:43:42;;;;;;;0.30;0.20;;;;;;;9.82;97.71;101182.63;4994782;28;20481;-49
2023/10/01 02:46:11;;;;;;;0.30;0.20;;;;;;;9.84;97.14;101177.31;4982283;28;20458;-49
2023/10/01 02:48:42;;;;;;;0.30;0.20;;;;;;;9.75;96.55;101173.88;4994129;28;20580;-49
2023/10/01 02:51:15;;;;;;;0.30;0.20;;;;;;;9.61;97.22;101185.53;4994252;28;20452;-49
2023/10/01 02:54:04;;;;;;;0.30;0.20;;;;;;;9.67;97.56;101189.00;4994221;28;20493;-49
2023/10/01 02:56:32;;;;;;;0.30;0.20;;;;;;;9.63;97.81;101187.28;4994129;28;20521;-49
2023/10/01 02:59:15;;;;;;;0.30;0.20;;;;;;;9.66;98.97;101175.72;4993803;28;20480;-49
2023/10/01 03:01:42;;;;;;;0.30;0.20;;;;;;;9.76;97.99;101185.38;4993721;28;20450;-49
2023/10/01 03:04:13;;;;;;;0.30;0.20;;;;;;;9.85;97.23;101185.25;4994066;28;20477;-50
2023/10/01 03:06:47;;;;;;;0.30;0.20;;;;;;;9.86;96.82;101179.03;4993794;28;20472;-50
2023/10/01 03:09:29;;;;;;;0.30;0.20;;;;;;;9.79;96.69;101180.00;4976643;28;20486;-50
2023/10/01 03:12:24;;;;;;;0.30;0.20;;;;;;;9.75;97.57;101178.31;4992107;28;20579;-50
2023/10/01 03:14:59;;;;;;;0.30;0.20;;;;;;;9.74;97.34;101172.13;4987600;28;20453;-52
2023/10/01 03:17:38;;;;;;;0.37;0.30;;;;;;;9.74;97.61;101173.91;4993718;28;20505;-53
2023/10/01 03:21:04;;;;;;;0.30;0.20;;;;;;;9.60;97.74;101176.69;4993488;28;20445;-52
2023/10/01 03:23:01;;;;;;;1.80;1.80;;;;;;;9.58;97.89;101178.44;4992562;28;20454;-52
2023/10/01 03:25:40;;;;;;;0.40;0.20;;;;;;;9.69;97.88;101179.22;4993675;28;20512;-51
2023/10/01 03:28:25;;;;;;;0.40;0.20;;;;;;;9.73;97.26;101185.38;4993280;28;20917;-50
2023/10/01 03:31:09;;;;;;;0.30;0.20;;;;;;;9.60;97.64;101181.13;4980001;28;20443;-50
2023/10/01 03:33:37;;;;;;;0.30;0.20;;;;;;;9.65;97.69;101184.59;4993466;28;20551;-51
2023/10/01 03:36:10;;;;;;;0.30;0.20;;;;;;;9.62;97.00;101190.81;4993389;28;20556;-52
2023/10/01 03:38:45;;;;;;;0.30;0.20;;;;;;;9.44;98.03;101197.16;4990055;28;20481;-49
2023/10/01 03:41:21;;;;;;;0.30;0.20;;;;;;;9.45;98.06;101190.97;4993126;28;20453;-50
2023/10/01 03:43:50;;;;;;;0.30;0.20;;;;;;;9.46;98.07;101194.53;4993381;28;20441;-51
2023/10/01 03:46:26;;;;;;;0.30;0.20;;;;;;;9.43;97.67;101195.41;4968934;28;20460;-51
2023/10/01 03:48:58;;;;;;;0.30;0.20;;;;;;;9.46;97.72;101198.06;4993094;28;20904;-51
2023/10/01 03:54:26;;;;;;;0.30;0.20;;;;;;;9.45;96.95;101188.31;4993218;28;20450;-51
2023/10/01 03:56:57;;;;;;;0.30;0.20;;;;;;;9.47;97.09;101185.66;4992931;28;20957;-51
2023/10/01 03:59:31;;;;;;;0.30;0.20;;;;;;;9.47;96.99;101177.72;4993133;28;20531;-51
2023/10/01 04:01:58;;;;;;;0.30;0.20;;;;;;;9.34;97.25;101173.41;4992695;28;20451;-48
2023/10/01 04:04:56;;;;;;;0.40;0.30;;;;;;;9.33;97.61;101163.69;4993078;28;20453;-49
2023/10/01 04:07:40;;;;;;;0.30;0.20;;;;;;;9.31;97.77;101169.00;4990675;28;20481;-52
2023/10/01 04:10:13;;;;;;;0.30;0.20;;;;;;;9.37;98.56;101166.28;4976789;28;20449;-49
2023/10/01 04:12:44;;;;;;;0.30;0.20;;;;;;;9.33;99.35;101161.03;4992754;28;20589;-51
2023/10/01 04:15:27;;;;;;;4.60;4.30;;;;;;;9.41;98.84;101154.75;4986974;28;20500;-52
2023/10/01 04:20:48;;;;;;;0.30;0.20;;;;;;;9.29;99.69;101164.59;4992613;28;20449;-49
2023/10/01 04:23:29;;;;;;;0.30;0.20;;;;;;;9.41;99.20;101160.06;4992875;28;20519;-51
2023/10/01 04:25:56;;;;;;;0.30;0.20;;;;;;;9.52;99.40;101167.91;4992836;28;20537;-50
2023/10/01 04:28:25;;;;;;;0.30;0.20;;;;;;;9.44;98.81;101172.41;4992649;28;20480;-50
2023/10/01 04:30:52;;;;;;;0.30;0.20;;;;;;;9.35;98.41;101161.91;4992363;28;20461;-50
2023/10/01 04:33:23;;;;;;;0.30;0.20;;;;;;;9.28;98.38;101169.03;4992634;28;20496;-49
2023/10/01 04:35:58;;;;;;;0.30;0.20;;;;;;;9.39;98.69;101168.94;4996653;28;20446;-51
2023/10/01 04:38:32;;;;;;;0.30;0.20;;;;;;;9.44;98.02;101178.59;4993311;28;20823;-52
2023/10/01 04:40:59;;;;;;;0.30;0.20;;;;;;;9.44;97.98;101180.38;4996682;28;20452;-54
2023/10/01 04:43:34;;;;;;;0.30;0.20;;;;;;;9.37;97.67;101184.00;4996667;28;20492;-50
2023/10/01 04:46:08;;;;;;;0.30;0.20;;;;;;;9.19;97.80;101188.56;4984073;28;20453;-50
2023/10/01 04:48:36;;;;;;;0.30;0.20;;;;;;;9.26;99.03;101186.72;4996455;28;20465;-52
2023/10/01 04:51:07;;;;;;;0.30;0.20;;;;;;;9.26;98.76;101186.72;4996444;28;20832;-50
2023/10/01 04:53:34;;;;;;;0.30;0.20;;;;;;;9.16;98.09;101193.88;4996211;28;20524;-51
2023/10/01 04:56:00;;;;;;;0.30;0.20;;;;;;;9.06;97.92;101194.88;4996243;28;20963;-51
2023/10/01 04:58:37;;;;;;;0.30;0.20;;;;;;;9.02;98.42;101206.38;4996381;28;20465;-51
2023/10/01 05:01:06;;;;;;;0.30;0.20;;;;;;;9.03;98.42;101202.81;4996354;28;20456;-52
2023/10/01 05:03:39;;;;;;;0.30;0.20;;;;;;;9.02;98.74;101202.84;4996245;28;20541;-51
2023/10/01 05:06:19;;;;;;;0.30;0.20;;;;;;;9.01;97.85;101209.91;4996220;28;20540;-52
2023/10/01 05:08:50;;;;;;;0.30;0.20;;;;;;;9.13;98.44;101214.25;4982330;28;21066;-51
2023/10/01 05:11:21;;;;;;;0.30;0.20;;;;;;;9.12;98.75;101212.50;4989630;28;20540;-50
2023/10/01 05:13:51;;;;;;;0.30;0.20;;;;;;;9.16;98.89;101220.41;4996057;28;20604;-53
2023/10/01 05:16:26;;;;;;;0.30;0.20;;;;;;;9.13;99.28;101215.13;4984870;28;20536;-52
2023/10/01 05:21:52;;;;;;;0.30;0.20;;;;;;;9.12;98.54;101212.50;4987285;28;20541;-51
2023/10/01 05:24:35;;;;;;;0.30;0.20;;;;;;;9.15;98.53;101207.16;4995766;28;20452;-51
2023/10/01 05:27:08;;;;;;;0.30;0.20;;;;;;;9.17;97.89;101214.19;4995746;28;20515;-52
2023/10/01 05:29:42;;;;;;;0.30;0.20;;;;;;;9.16;97.58;101207.13;4991817;28;20521;-52
2023/10/01 05:32:12;;;;;;;0.30;0.20;;;;;;;9.08;97.82;101211.66;4987607;28;20445;-52
2023/10/01 05:34:42;;;;;;;0.30;0.20;;;;;;;9.12;97.66;101213.38;4995403;28;20806;-52
2023/10/01 05:37:09;;;;;;;0.30;0.20;;;;;;;9.00;97.54;101217.88;4993342;28;20469;-51
2023/10/01 05:42:40;;;;;;;0.30;0.20;;;;;;;9.07;97.47;101230.22;4991175;28;20449;-50
2023/10/01 05:45:14;;;;;;;0.30;0.20;;;;;;;9.06;98.18;101236.41;4984251;28;20453;-50
2023/10/01 05:47:54;;;;;;;0.30;0.20;;;;;;;9.04;98.04;101232.88;4994538;28;21015;-51
2023/10/01 05:50:22;;;;;;;0.30;0.20;;;;;;;9.08;98.30;101234.63;4995202;28;20445;-51
2023/10/01 05:52:50;;;;;;;0.30;0.20;;;;;;;9.08;98.19;101235.50;4995067;28;21053;-51
2023/10/01 05:55:16;;;;;;;0.30;0.20;;;;;;;9.16;97.79;101240.75;4995150;28;21057;-49
2023/10/01 05:57:43;;;;;;;0.30;0.20;;;;;;;9.17;98.44;101242.50;4995393;28;20564;-49
2023/10/01 06:00:17;;;;;;;0.30;0.20;;;;;;;9.19;98.20;101235.44;4995121;28;20485;-49
2023/10/01 06:02:48;;;;;;;0.30;0.20;;;;;;;9.27;98.50;101238.00;4995155;28;20442;-51
2023/10/01 06:08:17;;;;;;;0.30;0.20;;;;;;;9.42;99.85;101237.88;4932034;28;20493;-52
2023/10/01 06:10:48;;;;;;;0.30;0.20;;;;;;;9.50;98.86;101236.94;4983902;28;20445;-50
2023/10/01 06:13:17;;;;;;;0.30;0.20;;;;;;;9.58;99.25;101242.16;4994668;28;20486;-50
2023/10/01 06:15:44;;;;;;;0.30;0.20;;;;;;;9.67;99.24;101241.19;4989002;28;20456;-50
2023/10/01 06:18:12;;;;;;;0.30;0.20;;;;;;;9.76;99.20;101242.00;4994744;28;20469;-50
2023/10/01 06:20:39;;;;;;;0.30;0.20;;;;;;;9.88;99.32;101248.09;4994843;28;20450;-52
2023/10/01 06:23:07;;;;;;;0.30;0.20;;;;;;;9.87;100.00;101248.97;4994625;28;20541;-48
2023/10/01 06:25:44;;;;;;;0.30;0.20;;;;;;;9.89;100.00;101253.38;4995082;28;20963;-50
2023/10/01 06:28:11;;;;;;;0.30;0.20;;;;;;;10.04;100.00;101245.25;4994539;28;20469;-50
2023/10/01 06:30:40;;;;;;;0.30;0.20;;;;;;;10.16;100.00;101238.91;4982647;28;20509;-49
2023/10/01 06:33:24;;;;;;;0.30;0.20;;;;;;;10.29;100.00;101248.53;4994050;28;20563;-49
2023/10/01 06:36:15;;;;;;;5.67;5.10;;;;;;;10.46;100.00;101244.78;4994346;28;20453;-52
2023/10/01 06:38:47;;;;;;;0.30;0.20;;;;;;;10.56;100.00;101252.63;4991729;28;20515;-52
2023/10/01 06:41:19;;;;;;;0.30;0.20;;;;;;;10.67;100.00;101255.13;4994408;28;20545;-52
2023/10/01 06:43:49;;;;;;;0.30;0.20;;;;;;;10.74;100.00;101254.16;4994226;28;20456;-51
2023/10/01 06:46:21;;;;;;;0.30;0.20;;;;;;;10.94;100.00;101249.41;4970322;28;20504;-52
2023/10/01 06:48:50;;;;;;;0.30;0.20;;;;;;;10.97;100.00;101244.09;4993944;28;20974;-51
2023/10/01 06:51:21;;;;;;;0.30;0.20;;;;;;;10.77;100.00;101256.78;4994250;28;20449;-51
2023/10/01 06:53:53;;;;;;;0.30;0.20;;;;;;;11.10;100.00;101254.50;4994190;28;20493;-52
2023/10/01 06:56:21;;;;;;;0.30;0.20;;;;;;;11.04;100.00;101255.50;4993908;28;20998;-51
2023/10/01 07:01:46;;;;;;;0.30;0.20;;;;;;;11.48;98.65;101253.91;4994301;28;20504;-51
2023/10/01 07:04:15;;;;;;;0.30;0.20;;;;;;;11.60;98.68;101253.69;4993911;28;20441;-52
2023/10/01 07:06:50;;;;;;;0.30;0.20;;;;;;;11.63;98.68;101269.63;4993901;28;20552;-52
2023/10/01 07:09:24;;;;;;;0.40;0.20;;;;;;;11.81;97.71;101263.16;4976723;28;20458;-51
2023/10/01 07:11:52;;;;;;;0.30;0.20;;;;;;;12.03;97.62;101269.81;4992190;28;20440;-51
2023/10/01 07:14:29;;;;;;;0.30;0.20;;;;;;;12.04;98.59;101263.56;4989669;28;20947;-52
2023/10/01 07:16:57;;;;;;;0.40;0.20;;;;;;;12.06;98.08;101267.13;4993414;28;20456;-52
2023/10/01 07:19:24;;;;;;;0.40;0.40;;;;;;;12.42;98.95;101257.50;4993472;28;20457;-51
2023/10/01 07:21:56;;;;;;;0.37;0.20;;;;;;;12.62;98.78;101266.88;4993449;28;20905;-50
2023/10/01 07:24:26;;;;;;;0.40;0.20;;;;;;;12.64;98.48;101263.28;4993423;28;20812;-50
2023/10/01 07:27:03;;;;;;;0.40;0.30;;;;;;;12.53;99.42;101259.06;4993315;28;20472;-50
2023/10/01 07:29:34;;;;;;;0.40;0.30;;;;;;;12.64;99.37;101262.41;4990416;28;20493;-51
2023/10/01 07:32:07;;;;;;;0.40;0.20;;;;;;;12.72;99.71;101260.41;4984146;28;20481;-51
2023/10/01 07:34:42;;;;;;;0.40;0.20;;;;;;;12.64;99.95;101259.72;4992835;28;20489;-50
2023/10/01 07:37:23;;;;;;;0.40;0.20;;;;;;;12.85;99.93;101255.69;4990823;28;20480;-52
2023/10/01 07:39:55;;;;;;;0.40;0.20;;;;;;;13.04;98.89;101257.06;4969501;28;20824;-52
2023/10/01 07:42:23;;;;;;;0.40;0.20;;;;;;;13.26;97.49;101252.09;4993041;28;20459;-51
2023/10/01 07:44:49;;;;;;;0.40;0.20;;;;;;;13.20;97.82;101252.25;4984938;28;20486;-50
2023/10/01 07:47:28;;;;;;;0.40;0.20;;;;;;;13.16;97.91;101256.78;4988751;28;20557;-52
2023/10/01 07:50:02;;;;;;;0.40;0.20;;;;;;;13.09;98.86;101255.13;4993512;28;20449;-52
2023/10/01 07:52:36;;;;;;;0.40;0.20;;;;;;;13.27;99.23;101253.84;4992956;28;20457;-51
2023/10/01 07:55:29;;;;;;;0.40;0.20;;;;;;;13.34;98.53;101251.00;4992923;28;20493;-52
2023/10/01 07:57:51;;;;;;;0.60;0.60;;;;;;;13.69;97.51;101256.38;4971899;28;20469;-52
2023/10/01 08:00:29;;;;;;;0.40;0.20;;;;;;;13.79;96.92;101258.75;4992898;28;20435;-52
2023/10/01 08:05:41;;;;;;;0.40;0.20;;;;;;;13.69;97.99;101267.06;4968084;28;20477;-51
2023/10/01 08:08:10;;;;;;;0.40;0.20;;;;;;;13.92;97.15;101257.53;4983967;28;20474;-52
2023/10/01 08:10:37;;;;;;;0.40;0.20;;;;;;;13.84;97.23;101248.84;4981349;28;20464;-51
2023/10/01 08:13:07;;;;;;;0.40;0.20;;;;;;;14.04;97.02;101258.13;4992869;28;20477;-52
2023/10/01 08:15:50;;;;;;;0.40;0.20;;;;;;;14.12;96.63;101245.44;4987341;28;20453;-52
2023/10/01 08:18:34;;;;;;;0.40;0.20;;;;;;;14.19;96.13;101253.22;4992503;28;20473;-52
2023/10/01 08:21:03;;;;;;;0.40;0.20;;;;;;;14.47;95.57;101250.66;4993032;28;20446;-51
2023/10/01 08:23:36;;;;;;;0.40;0.20;;;;;;;14.59;94.53;101249.44;4992783;28;20457;-51
2023/10/01 08:26:43;;;;;;;0.40;0.20;;;;;;;14.64;94.30;101244.81;4992581;28;20532;-51
2023/10/01 08:28:57;;;;;;;0.40;0.20;;;;;;;14.90;93.67;101246.69;4992527;28;20552;-51
2023/10/01 08:34:23;;;;;;;0.40;0.20;;;;;;;15.10;92.88;101248.75;4992602;28;20492;-51
2023/10/01 08:36:54;;;;;;;0.40;0.20;;;;;;;15.24;92.15;101245.63;4992381;28;20446;-51
2023/10/01 08:39:33;;;;;;;0.40;0.20;;;;;;;15.47;91.60;101247.53;4986766;28;21009;-51
2023/10/01 08:42:08;;;;;;;0.40;0.20;;;;;;;15.74;90.52;101243.97;4992755;28;20424;-51
2023/10/01 08:45:04;;;;;;;0.50;0.40;;;;;;;15.77;90.29;101235.84;4992375;28;20446;-51
2023/10/01 08:47:34;;;;;;;0.40;0.20;;;;;;;15.97;89.84;101240.47;4992150;28;20890;-51
2023/10/01 08:52:55;;;;;;;0.40;0.20;;;;;;;16.21;89.42;101244.09;4992399;28;20472;-52
2023/10/01 08:55:39;;;;;;;0.40;0.20;;;;;;;16.55;85.86;101235.66;4992220;28;20501;-52
2023/10/01 08:58:14;;;;;;;0.40;0.20;;;;;;;16.61;87.12;101240.81;4992695;28;20561;-52
2023/10/01 09:01:12;;;;;;;0.40;0.20;;;;;;;16.88;86.95;101236.19;4992405;28;20452;-52
2023/10/01 09:03:47;;;;;;;0.40;0.20;;;;;;;16.51;87.28;101236.72;4992005;28;20939;-52
2023/10/01 09:06:24;;;;;;;0.40;0.20;;;;;;;16.84;86.98;101240.78;4991936;28;20823;-52
2023/10/01 09:08:55;;;;;;;0.40;0.20;;;;;;;16.83;86.66;101238.16;4977744;28;20996;-52
2023/10/01 09:11:41;;;;;;;0.40;0.20;;;;;;;16.97;86.30;101243.88;4985839;28;20575;-52
2023/10/01 09:14:17;;;;;;;0.40;0.20;;;;;;;16.82;86.43;101236.44;4969101;28;20495;-52
2023/10/01 09:16:45;;;;;;;0.40;0.20;;;;;;;17.17;85.65;101237.72;4989429;28;20445;-52
2023/10/01 09:19:33;;;;;;;0.50;0.40;;;;;;;17.12;85.24;101240.56;4992336;28;20947;-52
2023/10/01 09:22:07;;;;;;;0.40;0.20;;;;;;;17.38;84.84;101226.06;4995997;28;20910;-50
2023/10/01 09:24:34;;;;;;;0.40;0.20;;;;;;;17.83;84.11;101225.09;4978639;28;20482;-50
2023/10/01 09:27:20;;;;;;;0.40;0.20;;;;;;;17.77;83.85;101226.22;4988176;28;20543;-50
2023/10/01 09:29:56;;;;;;;0.40;0.20;;;;;;;17.98;83.39;101219.03;4977134;28;20458;-50
2023/10/01 09:32:54;;;;;;;0.40;0.30;;;;;;;18.34;82.43;101223.69;4982679;28;20527;-50
2023/10/01 09:35:38;;;;;;;0.40;0.20;;;;;;;18.53;81.73;101224.63;4995559;28;20580;-50
2023/10/01 09:38:11;;;;;;;0.40;0.20;;;;;;;18.62;80.28;101226.84;4956265;28;20481;-50
2023/10/01 09:40:41;;;;;;;0.40;0.20;;;;;;;18.79;80.84;101230.63;4995331;28;20931;-49
2023/10/01 09:43:19;;;;;;;0.50;0.50;;;;;;;18.83;79.42;101216.94;4990040;28;20457;-49
2023/10/01 09:45:48;;;;;;;0.40;0.20;;;;;;;19.47;78.36;101215.59;4982456;28;20457;-49
2023/10/01 09:48:33;;;;;;;0.40;0.20;;;;;;;19.37;79.05;101217.00;4979734;28;20456;-49
2023/10/01 09:51:08;;;;;;;0.40;0.20;;;;;;;19.47;77.40;101207.50;4970016;28;20444;-50
2023/10/01 09:54:01;;;;;;;0.40;0.20;;;;;;;19.61;77.79;101205.00;4989889;28;20931;-49
2023/10/01 09:56:30;;;;;;;0.40;0.20;;;;;;;19.53;77.34;101210.75;4986258;28;20416;-50
2023/10/01 09:58:59;;;;;;;0.40;0.20;;;;;;;19.28;78.61;101209.34;4995327;28;20469;-49
2023/10/01 10:01:27;;;;;;;0.50;0.50;;;;;;;19.56;77.77;101209.75;4995234;28;20451;-49
2023/10/01 10:03:59;;;;;;;0.40;0.20;;;;;;;19.59;76.99;101197.91;4995065;28;20448;-49
2023/10/01 10:06:26;;;;;;;0.40;0.20;;;;;;;19.86;76.78;101206.41;4994828;28;20512;-50
2023/10/01 10:09:03;;;;;;;0.40;0.20;;;;;;;19.80;77.65;101203.09;4969717;28;20457;-50
2023/10/01 10:11:43;;;;;;;0.40;0.20;;;;;;;19.85;77.19;101204.66;4971962;28;20793;-49
2023/10/01 10:14:36;;;;;;;0.40;0.20;;;;;;;20.26;76.08;101203.31;4979621;28;20957;-49
2023/10/01 10:17:18;;;;;;;0.40;0.20;;;;;;;20.51;75.59;101193.91;4969226;28;20477;-49
2023/10/01 10:23:13;;;;;;;0.40;0.20;;;;;;;20.55;73.85;101190.09;4974158;28;20950;-49
2023/10/01 10:25:41;;;;;;;0.40;0.20;;;;;;;20.65;73.51;101192.19;4980081;28;20429;-49
2023/10/01 10:28:09;;;;;;;0.40;0.20;;;;;;;21.11;73.02;101183.31;4967087;28;20469;-49
2023/10/01 10:30:41;;;;;;;0.40;0.20;;;;;;;21.09;72.60;101187.91;4957261;28;20433;-49
2023/10/01 10:33:16;;;;;;;0.40;0.20;;;;;;;21.46;71.43;101182.13;4992947;28;20831;-49
2023/10/01 10:35:49;;;;;;;0.50;0.20;;;;;;;21.52;70.89;101172.78;4994130;28;20467;-49
2023/10/01 10:38:51;;;;;;;0.50;0.20;;;;;;;21.64;70.35;101180.13;4984311;28;20536;-49
2023/10/01 10:41:25;;;;;;;0.40;0.20;;;;;;;21.43;69.14;101179.59;4978094;28;20449;-50
2023/10/01 10:44:08;;;;;;;0.40;0.20;;;;;;;21.79;71.17;101176.53;4986900;28;20443;-50
2023/10/01 10:46:59;;;;;;;0.40;0.20;;;;;;;21.95;70.24;101179.16;4985076;28;20507;-49
2023/10/01 10:49:52;;;;;;;0.40;0.30;;;;;;;22.14;69.00;101179.78;4961023;28;20494;-49
2023/10/01 10:52:32;;;;;;;0.40;0.20;;;;;;;22.02;69.43;101180.50;4989421;28;20463;-49
2023/10/01 10:55:18;;;;;;;0.50;0.20;;;;;;;21.80;69.82;101172.88;4993135;28;20468;-51
2023/10/01 10:57:48;;;;;;;0.50;0.30;;;;;;;21.92;69.17;101167.63;4959631;28;20479;-48
2023/10/01 11:00:24;;;;;;;0.40;0.20;;;;;;;21.82;68.68;101157.38;4986521;28;20517;-51
2023/10/01 11:02:57;;;;;;;0.40;0.20;;;;;;;21.69;69.20;101159.09;4986551;28;20435;-51
2023/10/01 11:05:33;;;;;;;0.40;0.20;;;;;;;21.79;69.60;101156.69;4994220;28;20512;-51
2023/10/01 11:08:02;;;;;;;0.40;0.20;;;;;;;21.80;68.75;101153.91;4981224;28;20487;-48
2023/10/01 11:10:45;;;;;;;0.40;0.20;;;;;;;22.10;67.82;101153.00;4980718;28;20967;-50
2023/10/01 11:13:13;;;;;;;0.40;0.20;;;;;;;22.26;66.90;101151.06;4993782;28;20454;-49
2023/10/01 11:15:40;;;;;;;0.50;0.20;;;;;;;22.38;66.26;101144.00;4988327;28;20592;-49
2023/10/01 11:18:09;;;;;;;0.50;0.20;;;;;;;22.50;66.82;101148.63;4993990;28;20473;-49
2023/10/01 11:20:44;;;;;;;0.50;0.20;;;;;;;22.82;66.78;101132.09;4994028;28;20521;-49
2023/10/01 11:23:16;;;;;;;0.40;0.20;;;;;;;22.92;67.03;101144.09;4979119;28;20507;-49
2023/10/01 11:25:47;;;;;;;0.40;0.20;;;;;;;22.60;67.04;101149.75;4993543;28;20882;-50
2023/10/01 11:28:14;;;;;;;0.50;0.30;;;;;;;22.40;67.70;101145.63;4988022;28;20471;-49
2023/10/01 11:30:43;;;;;;;0.40;0.20;;;;;;;22.52;66.84;101146.69;4964405;28;20486;-49
2023/10/01 11:36:07;;;;;;;0.50;0.30;;;;;;;22.66;66.12;101140.38;4993526;28;20509;-49
2023/10/01 11:38:38;;;;;;;0.50;0.20;;;;;;;22.41;66.60;101128.41;4973432;28;20449;-49
2023/10/01 11:41:06;;;;;;;0.50;0.20;;;;;;;22.42;66.08;101126.56;4977143;28;20468;-49
2023/10/01 11:43:58;;;;;;;0.40;0.20;;;;;;;22.47;66.35;101119.84;4992776;28;20700;-49
2023/10/01 11:46:32;;;;;;;0.40;0.20;;;;;;;22.48;66.48;101109.91;4966270;28;20460;-49
2023/10/01 11:49:09;;;;;;;0.40;0.20;;;;;;;22.65;66.37;101112.41;4973742;28;20447;-49
2023/10/01 11:51:48;;;;;;;0.40;0.20;;;;;;;22.72;65.99;101102.88;4991059;28;20553;-49
2023/10/01 11:54:19;;;;;;;0.40;0.20;;;;;;;22.90;65.22;101108.09;4992844;28;20543;-48
2023/10/01 11:57:04;;;;;;;0.40;0.20;;;;;;;23.18;64.83;101107.97;4992949;28;20449;-50
2023/10/01 11:59:34;;;;;;;0.50;0.20;;;;;;;23.05;64.82;101107.06;4984739;28;20943;-49
2023/10/01 12:04:58;;;;;;;0.47;0.20;;;;;;;23.42;64.86;101093.66;4981143;28;20428;-49
2023/10/01 12:07:45;;;;;;;0.40;0.20;;;;;;;23.40;64.96;101095.63;4966332;28;20500;-50
2023/10/01 12:13:02;;;;;;;0.50;0.30;;;;;;;23.69;62.82;101083.63;4980219;28;20454;-50
2023/10/01 12:15:34;;;;;;;0.50;0.23;;;;;;;23.83;63.24;101079.94;4969582;28;20485;-50
2023/10/01 12:18:15;;;;;;;0.50;0.30;;;;;;;23.75;62.93;101079.63;4971145;28;20479;-50
2023/10/01 12:20:47;;;;;;;0.43;0.20;;;;;;;23.89;62.95;101082.22;4964447;28;20458;-50
2023/10/01 12:23:15;;;;;;;0.50;0.20;;;;;;;23.93;62.26;101071.03;4973850;28;20450;-49
2023/10/01 12:25:46;;;;;;;0.47;0.23;;;;;;;23.84;62.19;101068.09;4990216;28;20457;-49
2023/10/01 12:28:29;;;;;;;0.50;0.20;;;;;;;24.12;62.17;101057.00;4986037;28;20554;-50
2023/10/01 12:30:59;;;;;;;0.50;0.30;;;;;;;24.01;61.48;101056.03;4973743;28;20458;-49
2023/10/01 12:33:46;;;;;;;0.50;0.23;;;;;;;24.23;60.24;101054.34;4992803;28;20485;-49
2023/10/01 12:36:32;;;;;;;0.50;0.30;;;;;;;24.21;60.48;101052.72;4992606;28;20489;-49